SHT22A EGLL-EGJB
Flight info
| Callsign | SHT22A |
|---|---|
| Flight time | 0h 33m |
| Altitude | 22000 |
| Route | GOGSI N621 SAM N63 LELNA |
| Aircraft | A319/M-SDE3FGHIRWY/LB1 |
Departure
| Time | 2026-04-25 11:36 |
|---|---|
| Airport | London Heathrow Airport (EGLL) |
Arrival
| Time | 2026-04-25 12:09 |
|---|---|
| Airport | Guernsey Airport (EGJB) |
| Time | Latitude | Longitude | Altitude | Speed | Heading |
|---|---|---|---|---|---|
| 2026-04-25 10:53 | 51.47416 | -0.48953 | 90 ft | 0 kts | 180° |
| 2026-04-25 11:19 | 51.47433 | -0.48953 | 90 ft | 4 kts | 180° |
| 2026-04-25 11:19 | 51.47453 | -0.48954 | 89 ft | 4 kts | 206° |
| 2026-04-25 11:19 | 51.47466 | -0.48930 | 89 ft | 3 kts | 220° |
| 2026-04-25 11:20 | 51.47477 | -0.48916 | 87 ft | 4 kts | 210° |
| 2026-04-25 11:20 | 51.47494 | -0.48911 | 89 ft | 3 kts | 135° |
| 2026-04-25 11:20 | 51.47506 | -0.48932 | 89 ft | 0 kts | 135° |
| 2026-04-25 11:25 | 51.47501 | -0.48922 | 86 ft | 3 kts | 133° |
| 2026-04-25 11:25 | 51.47487 | -0.48867 | 87 ft | 7 kts | 95° |
| 2026-04-25 11:25 | 51.47486 | -0.48764 | 86 ft | 10 kts | 93° |
| 2026-04-25 11:25 | 51.47485 | -0.48649 | 86 ft | 11 kts | 90° |
| 2026-04-25 11:26 | 51.47483 | -0.48520 | 86 ft | 12 kts | 102° |
| 2026-04-25 11:26 | 51.47414 | -0.48476 | 86 ft | 11 kts | 178° |
| 2026-04-25 11:26 | 51.47336 | -0.48475 | 86 ft | 11 kts | 180° |
| 2026-04-25 11:26 | 51.47261 | -0.48476 | 86 ft | 11 kts | 178° |
| 2026-04-25 11:27 | 51.47178 | -0.48475 | 86 ft | 13 kts | 181° |
| 2026-04-25 11:27 | 51.47078 | -0.48473 | 86 ft | 15 kts | 180° |
| 2026-04-25 11:27 | 51.46975 | -0.48473 | 86 ft | 15 kts | 180° |
| 2026-04-25 11:27 | 51.46908 | -0.48474 | 86 ft | 14 kts | 181° |
| 2026-04-25 11:28 | 51.46776 | -0.48473 | 86 ft | 14 kts | 179° |
| 2026-04-25 11:28 | 51.46680 | -0.48466 | 86 ft | 14 kts | 165° |
| 2026-04-25 11:28 | 51.46650 | -0.48346 | 86 ft | 12 kts | 89° |
| 2026-04-25 11:28 | 51.46651 | -0.48207 | 87 ft | 13 kts | 89° |
| 2026-04-25 11:29 | 51.46652 | -0.48043 | 86 ft | 18 kts | 90° |
| 2026-04-25 11:29 | 51.46653 | -0.47813 | 86 ft | 23 kts | 89° |
| 2026-04-25 11:29 | 51.46654 | -0.47530 | 86 ft | 26 kts | 89° |
| 2026-04-25 11:29 | 51.46656 | -0.47282 | 86 ft | 20 kts | 89° |
| 2026-04-25 11:30 | 51.46658 | -0.47042 | 88 ft | 23 kts | 89° |
| 2026-04-25 11:30 | 51.46659 | -0.46768 | 88 ft | 24 kts | 90° |
| 2026-04-25 11:30 | 51.46658 | -0.46527 | 89 ft | 19 kts | 90° |
| 2026-04-25 11:30 | 51.46659 | -0.46296 | 89 ft | 22 kts | 90° |
| 2026-04-25 11:31 | 51.46659 | -0.46029 | 88 ft | 25 kts | 90° |
| 2026-04-25 11:31 | 51.46656 | -0.45786 | 86 ft | 20 kts | 89° |
| 2026-04-25 11:31 | 51.46659 | -0.45550 | 87 ft | 23 kts | 89° |
| 2026-04-25 11:31 | 51.46662 | -0.45341 | 86 ft | 17 kts | 89° |
| 2026-04-25 11:32 | 51.46664 | -0.45144 | 86 ft | 19 kts | 89° |
| 2026-04-25 11:32 | 51.46665 | -0.44922 | 87 ft | 21 kts | 90° |
| 2026-04-25 11:32 | 51.46666 | -0.44668 | 87 ft | 24 kts | 90° |
| 2026-04-25 11:32 | 51.46667 | -0.44383 | 86 ft | 28 kts | 90° |
| 2026-04-25 11:33 | 51.46667 | -0.44160 | 86 ft | 10 kts | 90° |
| 2026-04-25 11:33 | 51.46652 | -0.44051 | 89 ft | 10 kts | 129° |
| 2026-04-25 11:33 | 51.46637 | -0.44044 | 87 ft | 1 kts | 192° |
| 2026-04-25 11:33 | 51.46621 | -0.44049 | 87 ft | 4 kts | 191° |
| 2026-04-25 11:34 | 51.46588 | -0.44056 | 89 ft | 6 kts | 184° |
| 2026-04-25 11:34 | 51.46533 | -0.44057 | 86 ft | 9 kts | 179° |
| 2026-04-25 11:34 | 51.46496 | -0.44101 | 86 ft | 7 kts | 248° |
| 2026-04-25 11:34 | 51.46493 | -0.44133 | 86 ft | 0 kts | 269° |
| 2026-04-25 11:35 | 51.46493 | -0.44142 | 86 ft | 8 kts | 269° |
| 2026-04-25 11:35 | 51.46491 | -0.44592 | 88 ft | 72 kts | 269° |
| 2026-04-25 11:35 | 51.46489 | -0.45739 | 86 ft | 132 kts | 269° |
| 2026-04-25 11:35 | 51.46481 | -0.47442 | 324 ft | 159 kts | 269° |
| 2026-04-25 11:36 | 51.46468 | -0.49204 | 1037 ft | 159 kts | 269° |
| 2026-04-25 11:36 | 51.46434 | -0.50975 | 1684 ft | 165 kts | 268° |
| 2026-04-25 11:36 | 51.46402 | -0.52935 | 2088 ft | 186 kts | 269° |
| 2026-04-25 11:36 | 51.46378 | -0.55153 | 2481 ft | 212 kts | 269° |
| 2026-04-25 11:37 | 51.46354 | -0.57655 | 3019 ft | 237 kts | 269° |
| 2026-04-25 11:37 | 51.46328 | -0.60426 | 3693 ft | 258 kts | 269° |
| 2026-04-25 11:37 | 51.46126 | -0.63320 | 4685 ft | 265 kts | 256° |
| 2026-04-25 11:37 | 51.45689 | -0.66206 | 5781 ft | 267 kts | 256° |
| 2026-04-25 11:38 | 51.45474 | -0.69183 | 6817 ft | 271 kts | 269° |
| 2026-04-25 11:38 | 51.45442 | -0.72219 | 7831 ft | 274 kts | 269° |
| 2026-04-25 11:38 | 51.45409 | -0.75299 | 8824 ft | 278 kts | 269° |
| 2026-04-25 11:38 | 51.45289 | -0.78417 | 9787 ft | 284 kts | 260° |
| 2026-04-25 11:39 | 51.44610 | -0.81432 | 10522 ft | 298 kts | 241° |
| 2026-04-25 11:39 | 51.43196 | -0.84019 | 10837 ft | 324 kts | 220° |
| 2026-04-25 11:39 | 51.41439 | -0.86396 | 11433 ft | 335 kts | 220° |
| 2026-04-25 11:39 | 51.39556 | -0.88565 | 12216 ft | 340 kts | 215° |
| 2026-04-25 11:40 | 51.37586 | -0.90699 | 13070 ft | 343 kts | 215° |
| 2026-04-25 11:40 | 51.35600 | -0.92846 | 13901 ft | 346 kts | 215° |
| 2026-04-25 11:40 | 51.33602 | -0.95043 | 14634 ft | 349 kts | 216° |
| 2026-04-25 11:40 | 51.31596 | -0.97263 | 15329 ft | 353 kts | 216° |
| 2026-04-25 11:41 | 51.29565 | -0.99509 | 16043 ft | 356 kts | 216° |
| 2026-04-25 11:41 | 51.27502 | -1.01757 | 16755 ft | 360 kts | 215° |
| 2026-04-25 11:41 | 51.25397 | -1.03972 | 17464 ft | 364 kts | 214° |
| 2026-04-25 11:41 | 51.23258 | -1.06174 | 18168 ft | 367 kts | 214° |
| 2026-04-25 11:42 | 51.21093 | -1.08378 | 18824 ft | 371 kts | 214° |
| 2026-04-25 11:42 | 51.18903 | -1.10601 | 19451 ft | 374 kts | 214° |
| 2026-04-25 11:42 | 51.16700 | -1.12839 | 20111 ft | 376 kts | 214° |
| 2026-04-25 11:42 | 51.14493 | -1.15091 | 20776 ft | 378 kts | 214° |
| 2026-04-25 11:43 | 51.12276 | -1.17361 | 21121 ft | 379 kts | 214° |
| 2026-04-25 11:43 | 51.10065 | -1.19630 | 21209 ft | 377 kts | 214° |
| 2026-04-25 11:43 | 51.07865 | -1.21890 | 21222 ft | 376 kts | 214° |
| 2026-04-25 11:43 | 51.05695 | -1.24119 | 21221 ft | 376 kts | 214° |
| 2026-04-25 11:44 | 51.03496 | -1.26373 | 21221 ft | 375 kts | 214° |
| 2026-04-25 11:44 | 51.01301 | -1.28621 | 21220 ft | 375 kts | 214° |
| 2026-04-25 11:44 | 50.99102 | -1.30863 | 21219 ft | 375 kts | 214° |
| 2026-04-25 11:44 | 50.96902 | -1.33105 | 21219 ft | 375 kts | 214° |
| 2026-04-25 11:45 | 50.94655 | -1.35213 | 21218 ft | 376 kts | 208° |
| 2026-04-25 11:45 | 50.92312 | -1.37084 | 21220 ft | 376 kts | 208° |
| 2026-04-25 11:45 | 50.89969 | -1.38953 | 21220 ft | 376 kts | 208° |
| 2026-04-25 11:45 | 50.87627 | -1.40824 | 21221 ft | 376 kts | 208° |
| 2026-04-25 11:46 | 50.85289 | -1.42692 | 21217 ft | 377 kts | 208° |
| 2026-04-25 11:46 | 50.82947 | -1.44559 | 21217 ft | 377 kts | 208° |
| 2026-04-25 11:46 | 50.80625 | -1.46404 | 21219 ft | 377 kts | 208° |
| 2026-04-25 11:46 | 50.78280 | -1.48263 | 21221 ft | 377 kts | 208° |
| 2026-04-25 11:47 | 50.75937 | -1.50117 | 21222 ft | 377 kts | 208° |
| 2026-04-25 11:47 | 50.73588 | -1.51977 | 21223 ft | 377 kts | 208° |
| 2026-04-25 11:47 | 50.71248 | -1.53833 | 21223 ft | 377 kts | 208° |
| 2026-04-25 11:47 | 50.68901 | -1.55692 | 21223 ft | 377 kts | 208° |
| 2026-04-25 11:48 | 50.66550 | -1.57551 | 21222 ft | 377 kts | 208° |
| 2026-04-25 11:48 | 50.64201 | -1.59406 | 21225 ft | 377 kts | 208° |
| 2026-04-25 11:48 | 50.61853 | -1.61255 | 21225 ft | 377 kts | 208° |
| 2026-04-25 11:48 | 50.59535 | -1.63076 | 21226 ft | 377 kts | 208° |
| 2026-04-25 11:49 | 50.57187 | -1.64922 | 21229 ft | 377 kts | 208° |
| 2026-04-25 11:49 | 50.54839 | -1.66770 | 21230 ft | 377 kts | 208° |
| 2026-04-25 11:49 | 50.52494 | -1.68618 | 21224 ft | 377 kts | 208° |
| 2026-04-25 11:49 | 50.50145 | -1.70465 | 21231 ft | 377 kts | 208° |
| 2026-04-25 11:50 | 50.47798 | -1.72300 | 21233 ft | 377 kts | 208° |
| 2026-04-25 11:50 | 50.45443 | -1.74136 | 21230 ft | 377 kts | 208° |
| 2026-04-25 11:50 | 50.43091 | -1.75972 | 21231 ft | 377 kts | 208° |
| 2026-04-25 11:50 | 50.40770 | -1.77786 | 21230 ft | 377 kts | 208° |
| 2026-04-25 11:51 | 50.38418 | -1.79625 | 21215 ft | 377 kts | 208° |
| 2026-04-25 11:51 | 50.36074 | -1.81455 | 21215 ft | 377 kts | 208° |
| 2026-04-25 11:51 | 50.33727 | -1.83283 | 21217 ft | 377 kts | 208° |
| 2026-04-25 11:51 | 50.31370 | -1.85112 | 21212 ft | 377 kts | 208° |
| 2026-04-25 11:52 | 50.29015 | -1.86937 | 21213 ft | 377 kts | 208° |
| 2026-04-25 11:52 | 50.26689 | -1.88743 | 21210 ft | 377 kts | 208° |
| 2026-04-25 11:52 | 50.24339 | -1.90569 | 21209 ft | 377 kts | 208° |
| 2026-04-25 11:52 | 50.21987 | -1.92396 | 21207 ft | 378 kts | 208° |
| 2026-04-25 11:53 | 50.19628 | -1.94224 | 21206 ft | 378 kts | 208° |
| 2026-04-25 11:53 | 50.17267 | -1.96044 | 21194 ft | 378 kts | 208° |
| 2026-04-25 11:53 | 50.14903 | -1.97862 | 21196 ft | 378 kts | 208° |
| 2026-04-25 11:53 | 50.12541 | -1.99677 | 21197 ft | 379 kts | 208° |
| 2026-04-25 11:54 | 50.10166 | -2.01504 | 21206 ft | 379 kts | 208° |
| 2026-04-25 11:54 | 50.07831 | -2.03302 | 21207 ft | 379 kts | 208° |
| 2026-04-25 11:54 | 50.03095 | -2.06939 | 21209 ft | 379 kts | 208° |
| 2026-04-25 11:55 | 50.00725 | -2.08752 | 21210 ft | 379 kts | 208° |
| 2026-04-25 11:55 | 49.98481 | -2.10884 | 21207 ft | 377 kts | 219° |
| 2026-04-25 11:55 | 49.96550 | -2.13607 | 21210 ft | 375 kts | 229° |
| 2026-04-25 11:55 | 49.94829 | -2.16649 | 21197 ft | 375 kts | 230° |
| 2026-04-25 11:56 | 49.93103 | -2.19686 | 21189 ft | 375 kts | 230° |
| 2026-04-25 11:56 | 49.91372 | -2.22714 | 20639 ft | 377 kts | 230° |
| 2026-04-25 11:56 | 49.89610 | -2.25780 | 19876 ft | 381 kts | 230° |
| 2026-04-25 11:56 | 49.87843 | -2.28847 | 19261 ft | 380 kts | 230° |
| 2026-04-25 11:57 | 49.86088 | -2.31897 | 18694 ft | 378 kts | 230° |
| 2026-04-25 11:57 | 49.84344 | -2.34927 | 18067 ft | 375 kts | 230° |
| 2026-04-25 11:57 | 49.82637 | -2.37890 | 17426 ft | 372 kts | 230° |
| 2026-04-25 11:57 | 49.80917 | -2.40868 | 16790 ft | 368 kts | 229° |
| 2026-04-25 11:58 | 49.79218 | -2.43813 | 16148 ft | 365 kts | 230° |
| 2026-04-25 11:58 | 49.77535 | -2.46732 | 15497 ft | 362 kts | 229° |
| 2026-04-25 11:58 | 49.75872 | -2.49609 | 15134 ft | 352 kts | 229° |
| 2026-04-25 11:58 | 49.74277 | -2.52359 | 15007 ft | 334 kts | 229° |
| 2026-04-25 11:59 | 49.72764 | -2.54957 | 14865 ft | 316 kts | 229° |
| 2026-04-25 11:59 | 49.71316 | -2.57447 | 14476 ft | 308 kts | 229° |
| 2026-04-25 11:59 | 49.69894 | -2.59901 | 13927 ft | 306 kts | 229° |
| 2026-04-25 12:00 | 49.67026 | -2.64905 | 12773 ft | 299 kts | 230° |
| 2026-04-25 12:00 | 49.65683 | -2.67251 | 12480 ft | 285 kts | 229° |
| 2026-04-25 12:00 | 49.63101 | -2.71764 | 11457 ft | 278 kts | 230° |
| 2026-04-25 12:01 | 49.61823 | -2.73995 | 10917 ft | 276 kts | 230° |
| 2026-04-25 12:01 | 49.60981 | -2.75464 | 10565 ft | 275 kts | 230° |
| 2026-04-25 12:01 | 49.59310 | -2.78386 | 9852 ft | 273 kts | 229° |
| 2026-04-25 12:01 | 49.58064 | -2.80570 | 9292 ft | 271 kts | 230° |
| 2026-04-25 12:02 | 49.55808 | -2.83825 | 8396 ft | 268 kts | 207° |
| 2026-04-25 12:02 | 49.54082 | -2.84900 | 7853 ft | 267 kts | 201° |
| 2026-04-25 12:02 | 49.52332 | -2.85857 | 7325 ft | 266 kts | 200° |
| 2026-04-25 12:03 | 49.50591 | -2.86793 | 6821 ft | 264 kts | 200° |
| 2026-04-25 12:03 | 49.48862 | -2.87723 | 6308 ft | 262 kts | 200° |
| 2026-04-25 12:03 | 49.47145 | -2.88640 | 5772 ft | 261 kts | 200° |
| 2026-04-25 12:03 | 49.45433 | -2.89552 | 5262 ft | 258 kts | 200° |
| 2026-04-25 12:04 | 49.43738 | -2.90436 | 4757 ft | 256 kts | 198° |
| 2026-04-25 12:04 | 49.41979 | -2.90618 | 4240 ft | 256 kts | 169° |
| 2026-04-25 12:04 | 49.40430 | -2.89419 | 3923 ft | 247 kts | 137° |
| 2026-04-25 12:04 | 49.39555 | -2.87257 | 3668 ft | 235 kts | 104° |
| 2026-04-25 12:05 | 49.39578 | -2.84841 | 3420 ft | 223 kts | 71° |
| 2026-04-25 12:05 | 49.40250 | -2.82808 | 3162 ft | 211 kts | 52° |
| 2026-04-25 12:05 | 49.41240 | -2.81218 | 2883 ft | 202 kts | 42° |
| 2026-04-25 12:05 | 49.42245 | -2.79763 | 2608 ft | 195 kts | 51° |
| 2026-04-25 12:06 | 49.42886 | -2.77953 | 2425 ft | 192 kts | 74° |
| 2026-04-25 12:06 | 49.43046 | -2.75942 | 2201 ft | 189 kts | 88° |
| 2026-04-25 12:06 | 49.43105 | -2.73935 | 1952 ft | 187 kts | 88° |
| 2026-04-25 12:06 | 49.43162 | -2.71995 | 1714 ft | 176 kts | 88° |
| 2026-04-25 12:07 | 49.43214 | -2.70185 | 1463 ft | 161 kts | 88° |
| 2026-04-25 12:07 | 49.43260 | -2.68565 | 1264 ft | 141 kts | 88° |
| 2026-04-25 12:07 | 49.43301 | -2.67134 | 1079 ft | 129 kts | 88° |
| 2026-04-25 12:07 | 49.43339 | -2.65778 | 904 ft | 125 kts | 88° |
| 2026-04-25 12:08 | 49.43376 | -2.64449 | 734 ft | 124 kts | 87° |
| 2026-04-25 12:08 | 49.43415 | -2.63148 | 588 ft | 123 kts | 88° |
| 2026-04-25 12:08 | 49.43452 | -2.61842 | 414 ft | 122 kts | 88° |
| 2026-04-25 12:08 | 49.43484 | -2.60576 | 310 ft | 108 kts | 86° |
| 2026-04-25 12:09 | 49.43506 | -2.59863 | 324 ft | 36 kts | 88° |
| 2026-04-25 12:09 | 49.43516 | -2.59509 | 333 ft | 33 kts | 88° |
| 2026-04-25 12:09 | 49.43516 | -2.59216 | 334 ft | 10 kts | 129° |
| 2026-04-25 12:09 | 49.43433 | -2.59196 | 332 ft | 15 kts | 179° |
| 2026-04-25 12:10 | 49.43376 | -2.59243 | 334 ft | 10 kts | 270° |
| 2026-04-25 12:10 | 49.43369 | -2.59375 | 334 ft | 15 kts | 264° |
| 2026-04-25 12:10 | 49.43364 | -2.59518 | 332 ft | 10 kts | 269° |
| 2026-04-25 12:10 | 49.43353 | -2.59565 | 331 ft | 5 kts | 207° |
| 2026-04-25 12:11 | 49.43306 | -2.59565 | 327 ft | 3 kts | 178° |
| 2026-04-25 12:11 | 49.43283 | -2.59564 | 328 ft | 1 kts | 178° |
| 2026-04-25 12:11 | 49.43275 | -2.59563 | 328 ft | 1 kts | 178° |
| 2026-04-25 12:11 | 49.43272 | -2.59563 | 328 ft | 0 kts | 177° |